Time;durP1;ratioP1;P1;durP2;ratioP2;P2;SDS_P1;SDS_P2;PMS_P1;PMS_P2;Temp;Humidity;BMP_temperature;BMP_pressure;BME280_temperature;BME280_humidity;BME280_pressure;Samples;Min_cycle;Max_cycle;Signal;HPM_P1;HPM_P2
2023/03/03 00:01:04;;;;;;;5.68;3.15;;;;;;;-7.44;68.95;98107.38;4989610;28;20046;-75
2023/03/03 00:03:30;;;;;;;5.13;3.30;;;;;;;-7.36;68.85;98098.47;4957286;28;20053;-75
2023/03/03 00:05:57;;;;;;;7.32;3.78;;;;;;;-7.30;68.73;98100.03;4974538;28;20046;-76
2023/03/03 00:08:23;;;;;;;6.15;3.75;;;;;;;-7.37;68.24;98101.09;4989596;28;20490;-75
2023/03/03 00:10:49;;;;;;;3.53;2.90;;;;;;;-7.47;68.68;98102.25;4974604;28;20126;-75
2023/03/03 00:13:17;;;;;;;3.72;2.78;;;;;;;-7.51;68.95;98108.44;4957145;28;20486;-75
2023/03/03 00:15:44;;;;;;;5.32;3.35;;;;;;;-7.53;68.98;98115.38;4973482;28;20112;-75
2023/03/03 00:18:21;;;;;;;6.38;3.90;;;;;;;-7.58;69.05;98108.59;4956977;28;20483;-75
2023/03/03 00:20:51;;;;;;;5.28;3.38;;;;;;;-7.54;69.18;98126.66;4974580;28;20105;-75
2023/03/03 00:23:38;;;;;;;9.13;3.15;;;;;;;-7.59;69.52;98125.06;4956966;28;20141;-75
2023/03/03 00:26:27;;;;;;;3.80;2.75;;;;;;;-7.54;69.27;98131.84;4973012;28;20501;-75
2023/03/03 00:28:53;;;;;;;3.47;2.33;;;;;;;-7.70;69.92;98129.69;4968240;28;20501;-76
2023/03/03 00:31:28;;;;;;;4.05;2.70;;;;;;;-7.71;70.22;98133.16;4956926;28;20035;-77
2023/03/03 00:33:55;;;;;;;2.80;2.58;;;;;;;-7.76;70.57;98140.19;4973059;28;20147;-76
2023/03/03 00:36:36;;;;;;;4.28;2.88;;;;;;;-7.67;70.58;98139.97;4973135;28;20038;-76
2023/03/03 00:39:23;;;;;;;5.97;4.22;;;;;;;-7.49;70.18;98143.81;4972654;28;20058;-76
2023/03/03 00:41:49;;;;;;;6.88;3.58;;;;;;;-7.42;70.01;98144.50;4995697;28;20051;-78
2023/03/03 00:44:40;;;;;;;8.70;3.90;;;;;;;-7.43;69.88;98160.97;4980561;28;20050;-78
2023/03/03 00:47:37;;;;;;;3.55;2.78;;;;;;;-7.59;69.97;98158.78;4963291;28;20138;-77
2023/03/03 00:50:05;;;;;;;9.32;4.10;;;;;;;-7.47;70.12;98159.34;4979442;28;20066;-76
2023/03/03 00:53:01;;;;;;;5.70;3.58;;;;;;;-7.62;70.53;98174.44;4980693;28;20130;-75
2023/03/03 00:55:28;;;;;;;3.63;2.55;;;;;;;-7.71;70.90;98168.63;4963300;28;20046;-76
2023/03/03 00:57:54;;;;;;;3.53;2.67;;;;;;;-7.84;71.52;98168.09;4979513;28;20058;-76
2023/03/03 01:00:25;;;;;;;4.15;3.08;;;;;;;-7.75;71.57;98180.81;4979296;28;20541;-76
2023/03/03 01:02:51;;;;;;;8.02;3.90;;;;;;;-7.80;71.66;98174.91;4980432;28;20073;-75
2023/03/03 01:05:18;;;;;;;5.50;3.15;;;;;;;-7.70;71.29;98191.09;4979367;28;20078;-75
2023/03/03 01:07:44;;;;;;;3.83;2.95;;;;;;;-7.70;71.43;98181.56;4995455;28;20053;-76
2023/03/03 01:10:10;;;;;;;8.30;3.97;;;;;;;-7.65;71.18;98177.09;4980488;28;20043;-76
2023/03/03 01:12:37;;;;;;;3.85;3.03;;;;;;;-7.71;71.23;98174.69;4980708;28;20043;-76
2023/03/03 01:15:08;;;;;;;6.47;4.15;;;;;;;-7.62;71.11;98191.75;4979876;28;20070;-75
2023/03/03 01:17:34;;;;;;;6.82;3.58;;;;;;;-7.52;70.90;98189.75;4979456;28;20410;-76
2023/03/03 01:20:01;;;;;;;5.93;3.72;;;;;;;-7.57;71.11;98187.28;4963138;28;20035;-75
2023/03/03 01:22:27;;;;;;;7.10;4.15;;;;;;;-7.54;70.43;98186.34;4980236;28;20050;-75
2023/03/03 01:24:53;;;;;;;6.05;3.55;;;;;;;-7.65;70.97;98190.06;4979050;28;20047;-77
2023/03/03 01:27:19;;;;;;;8.23;4.32;;;;;;;-7.72;71.42;98192.88;4980237;28;20050;-75
2023/03/03 01:29:44;;;;;;;6.40;3.53;;;;;;;-7.74;71.41;98200.69;4962822;28;20051;-76
2023/03/03 01:32:10;;;;;;;4.90;3.42;;;;;;;-7.75;71.17;98208.50;4962806;28;20043;-75
2023/03/03 01:34:36;;;;;;;6.57;4.32;;;;;;;-7.75;70.98;98205.91;4962974;28;20043;-76
2023/03/03 01:37:02;;;;;;;6.97;4.07;;;;;;;-7.78;70.99;98211.16;4978851;28;20394;-75
2023/03/03 01:39:28;;;;;;;6.63;4.30;;;;;;;-7.80;71.04;98200.00;4962103;28;20057;-76
2023/03/03 01:41:54;;;;;;;7.53;4.70;;;;;;;-7.77;71.00;98205.97;4995300;28;20062;-76
2023/03/03 01:44:20;;;;;;;4.30;3.40;;;;;;;-7.89;71.25;98211.44;4978987;28;20043;-76
2023/03/03 01:46:54;;;;;;;10.35;4.63;;;;;;;-7.89;70.91;98216.63;4962805;28;20054;-76
2023/03/03 01:49:34;;;;;;;5.55;4.00;;;;;;;-7.93;71.10;98217.59;4979020;28;20034;-76
2023/03/03 01:52:04;;;;;;;9.88;4.07;;;;;;;-7.89;71.03;98222.69;4977336;28;20068;-76
2023/03/03 01:54:37;;;;;;;6.22;4.07;;;;;;;-7.94;71.02;98218.47;4977013;28;20105;-75
2023/03/03 01:57:10;;;;;;;6.85;3.88;;;;;;;-8.01;70.72;98224.69;4959678;28;20047;-75
2023/03/03 01:59:43;;;;;;;7.00;4.88;;;;;;;-8.17;70.19;98222.47;4975822;28;20149;-76
2023/03/03 02:02:09;;;;;;;7.00;4.10;;;;;;;-8.30;70.12;98221.03;4991771;28;20490;-76
2023/03/03 02:04:35;;;;;;;8.52;4.90;;;;;;;-8.26;70.00;98227.88;4959230;28;20089;-76
2023/03/03 02:07:07;;;;;;;6.68;4.63;;;;;;;-8.36;70.00;98231.53;4976490;28;20051;-74
2023/03/03 02:09:41;;;;;;;7.03;4.32;;;;;;;-8.38;69.93;98220.41;4975497;28;20094;-77
2023/03/03 02:12:11;;;;;;;9.60;4.38;;;;;;;-8.60;69.46;98222.59;4975419;28;20062;-76
2023/03/03 02:14:37;;;;;;;8.02;4.03;;;;;;;-8.71;69.07;98225.41;4975401;28;20049;-77
2023/03/03 02:17:05;;;;;;;7.22;4.38;;;;;;;-8.79;69.39;98232.50;4991305;28;20100;-77
2023/03/03 02:19:56;;;;;;;7.05;4.65;;;;;;;-8.97;69.50;98232.84;4959306;28;20133;-77
2023/03/03 02:22:31;;;;;;;13.13;4.55;;;;;;;-9.11;69.66;98243.47;4975259;28;20047;-76
2023/03/03 02:25:01;;;;;;;7.53;4.15;;;;;;;-9.22;69.24;98245.41;4959073;28;20042;-77
2023/03/03 02:27:32;;;;;;;10.80;4.82;;;;;;;-9.30;69.29;98245.53;4976131;28;20109;-77
2023/03/03 02:30:09;;;;;;;9.13;5.38;;;;;;;-9.34;69.62;98243.91;4991031;28;20061;-76
2023/03/03 02:32:35;;;;;;;10.90;5.10;;;;;;;-9.44;69.81;98250.13;4975111;28;20098;-76
2023/03/03 02:35:24;;;;;;;8.60;5.13;;;;;;;-9.33;69.76;98249.03;4958698;28;20043;-76
2023/03/03 02:37:50;;;;;;;2.85;2.17;;;;;;;-9.50;69.70;98252.81;4957746;28;20086;-77
2023/03/03 02:40:22;;;;;;;10.57;4.47;;;;;;;-9.69;69.89;98247.97;4991451;28;20043;-76
2023/03/03 02:42:51;;;;;;;3.00;2.55;;;;;;;-9.77;69.95;98249.81;4976191;28;20486;-76
2023/03/03 02:45:17;;;;;;;8.05;3.75;;;;;;;-9.84;70.24;98243.91;4942495;28;20039;-76
2023/03/03 02:47:50;;;;;;;9.10;5.05;;;;;;;-9.69;69.76;98260.88;4958213;28;20093;-76
2023/03/03 02:50:17;;;;;;;8.68;4.95;;;;;;;-9.65;69.73;98259.97;4958252;28;20533;-77
2023/03/03 02:52:43;;;;;;;20.10;8.02;;;;;;;-9.62;69.68;98259.91;4958799;28;20137;-76
2023/03/03 02:55:09;;;;;;;8.95;5.07;;;;;;;-9.66;69.33;98258.25;4990940;28;20138;-76
2023/03/03 02:57:35;;;;;;;9.30;4.82;;;;;;;-9.63;69.55;98262.50;4974509;28;20043;-76
2023/03/03 03:00:01;;;;;;;8.35;4.80;;;;;;;-9.57;69.54;98267.59;4974416;28;20053;-77
2023/03/03 03:02:29;;;;;;;9.80;4.60;;;;;;;-9.64;69.23;98266.84;4974363;28;20043;-77
2023/03/03 03:04:56;;;;;;;7.10;4.80;;;;;;;-9.69;68.98;98275.56;4974302;28;20050;-76
2023/03/03 03:07:23;;;;;;;9.77;5.15;;;;;;;-9.75;69.26;98283.41;4974413;28;20050;-76
2023/03/03 03:09:49;;;;;;;7.47;4.90;;;;;;;-9.79;69.20;98273.09;4974710;28;20035;-76
2023/03/03 03:12:18;;;;;;;10.02;5.40;;;;;;;-9.68;68.89;98279.84;4974328;28;20035;-76
2023/03/03 03:14:44;;;;;;;11.48;5.07;;;;;;;-9.62;68.73;98283.19;4958179;28;20054;-76
2023/03/03 03:17:11;;;;;;;8.75;5.15;;;;;;;-9.64;68.31;98277.19;4974211;28;20050;-75
2023/03/03 03:19:37;;;;;;;8.07;5.10;;;;;;;-9.61;68.43;98295.25;4990261;28;20073;-76
2023/03/03 03:22:03;;;;;;;17.70;4.93;;;;;;;-9.69;68.21;98288.50;4990195;28;20046;-77
2023/03/03 03:24:32;;;;;;;11.23;4.38;;;;;;;-9.66;67.96;98284.13;4974233;28;20050;-75
2023/03/03 03:27:02;;;;;;;9.30;4.45;;;;;;;-9.54;67.59;98293.41;4989818;28;20141;-76
2023/03/03 03:29:28;;;;;;;8.82;4.53;;;;;;;-9.51;67.55;98292.47;4975171;28;20193;-75
2023/03/03 03:31:54;;;;;;;9.20;5.15;;;;;;;-9.38;67.29;98289.69;4973651;28;20058;-77
2023/03/03 03:34:20;;;;;;;11.98;4.88;;;;;;;-9.34;67.21;98303.41;4989873;28;20442;-75
2023/03/03 03:36:47;;;;;;;10.25;5.00;;;;;;;-9.33;67.22;98297.34;4958600;28;20039;-77
2023/03/03 03:39:15;;;;;;;12.95;5.43;;;;;;;-9.27;67.20;98292.09;4974283;28;20080;-78
2023/03/03 03:41:45;;;;;;;;;;;;;;;-9.18;66.72;98312.59;4974977;28;20042;-76
2023/03/03 03:44:11;;;;;;;7.78;4.63;;;;;;;-9.03;69.71;98300.28;4957627;28;19926;-82
2023/03/03 03:46:37;;;;;;;9.02;4.88;;;;;;;-8.68;70.01;98312.59;4941542;28;20039;-79
2023/03/03 03:49:02;;;;;;;7.18;4.82;;;;;;;-8.76;66.90;98315.31;4957438;28;20056;-77
2023/03/03 03:51:30;;;;;;;12.57;5.30;;;;;;;-8.83;65.86;98329.25;4973729;28;20042;-76
2023/03/03 03:53:56;;;;;;;9.10;5.07;;;;;;;-8.83;65.71;98329.25;4957331;28;20043;-78
2023/03/03 03:56:22;;;;;;;16.67;5.45;;;;;;;-8.78;65.46;98324.84;4957260;28;20557;-76
2023/03/03 03:58:51;;;;;;;8.43;5.03;;;;;;;-8.72;65.33;98337.69;4973380;28;20043;-75
2023/03/03 04:01:17;;;;;;;7.28;4.75;;;;;;;-8.56;64.78;98344.28;4957281;28;20046;-75
2023/03/03 04:03:47;;;;;;;;;;;;;;;-8.38;65.17;98331.84;4973216;28;20528;-76
2023/03/03 04:06:17;;;;;;;7.82;3.97;;;;;;;-8.38;64.17;98321.47;4973384;28;20022;-78
2023/03/03 04:08:43;;;;;;;11.88;5.15;;;;;;;-8.29;64.27;98341.97;4978840;28;20046;-77
2023/03/03 04:11:09;;;;;;;11.30;5.30;;;;;;;-8.12;64.08;98339.91;4977985;28;20050;-76
2023/03/03 04:13:36;;;;;;;9.73;4.22;;;;;;;-8.25;62.84;98338.44;4957164;28;20121;-82
2023/03/03 04:16:05;;;;;;;6.78;4.90;;;;;;;-8.37;63.12;98343.91;4941116;28;20042;-78
2023/03/03 04:18:31;;;;;;;12.13;5.10;;;;;;;-8.29;63.08;98360.13;4973542;28;20134;-78
2023/03/03 04:20:57;;;;;;;7.28;4.53;;;;;;;-8.15;63.06;98354.66;4941057;28;20047;-77
2023/03/03 04:23:24;;;;;;;14.43;5.60;;;;;;;-8.06;62.89;98363.09;4956904;28;20046;-78
2023/03/03 04:25:50;;;;;;;8.50;5.18;;;;;;;-7.73;63.20;98368.44;4956986;28;20050;-76
2023/03/03 04:28:17;;;;;;;13.43;5.28;;;;;;;-7.58;62.61;98362.91;4956389;28;20038;-76
2023/03/03 04:30:44;;;;;;;8.95;5.25;;;;;;;-7.55;60.99;98379.31;4956927;28;20133;-79
2023/03/03 04:33:10;;;;;;;10.07;5.38;;;;;;;-7.35;61.39;98366.69;4973583;28;20490;-77
2023/03/03 04:35:38;;;;;;;13.75;4.28;;;;;;;-7.36;60.48;98362.41;4972838;28;20090;-77
2023/03/03 04:38:04;;;;;;;10.60;5.03;;;;;;;-7.55;59.74;98371.50;4955744;28;20081;-77
2023/03/03 04:40:31;;;;;;;10.35;5.28;;;;;;;-7.37;60.69;98376.25;4956471;28;20411;-77
2023/03/03 04:42:58;;;;;;;22.65;5.13;;;;;;;-7.31;59.75;98380.47;4971650;28;20043;-77
2023/03/03 04:45:24;;;;;;;10.35;5.15;;;;;;;-7.37;59.48;98373.66;4940328;28;20039;-76
2023/03/03 04:47:50;;;;;;;9.10;5.30;;;;;;;-7.24;59.92;98379.44;4972301;28;20053;-77
2023/03/03 04:50:16;;;;;;;9.70;5.13;;;;;;;-6.98;59.81;98383.97;4940391;28;20429;-77
2023/03/03 04:52:42;;;;;;;11.07;5.20;;;;;;;-6.61;59.35;98382.16;4956368;28;20050;-76
2023/03/03 04:55:09;;;;;;;11.23;6.05;;;;;;;-6.40;58.21;98390.25;4940391;28;20047;-77
2023/03/03 04:57:36;;;;;;;11.05;5.13;;;;;;;-6.21;57.71;98399.25;4955604;28;20046;-78
2023/03/03 05:00:03;;;;;;;13.63;6.28;;;;;;;-6.08;57.04;98399.78;4972220;28;20050;-76
2023/03/03 05:02:31;;;;;;;10.75;5.72;;;;;;;-5.87;56.30;98404.34;4956486;28;20054;-77
2023/03/03 05:04:57;;;;;;;9.55;5.32;;;;;;;-5.62;56.49;98404.44;4942391;29;20135;-77
2023/03/03 05:07:23;;;;;;;8.73;5.22;;;;;;;-5.56;55.23;98397.38;4971771;28;20074;-78
2023/03/03 05:09:49;;;;;;;14.63;6.05;;;;;;;-5.36;55.06;98413.22;4975135;28;20050;-76
2023/03/03 05:12:16;;;;;;;10.40;5.38;;;;;;;-5.12;54.16;98404.63;4975096;28;20401;-78
2023/03/03 05:14:42;;;;;;;10.68;5.18;;;;;;;-4.99;52.50;98414.69;5007788;28;20493;-77
2023/03/03 05:17:08;;;;;;;8.48;4.65;;;;;;;-4.77;52.62;98420.91;5007802;28;20097;-80
2023/03/03 05:19:36;;;;;;;10.57;5.47;;;;;;;-4.93;51.37;98409.25;4975535;28;20053;-76
2023/03/03 05:22:02;;;;;;;11.63;5.25;;;;;;;-4.76;51.99;98419.13;4992371;28;20046;-74
2023/03/03 05:24:28;;;;;;;9.65;5.35;;;;;;;-4.80;51.54;98414.94;4991276;28;20408;-76
2023/03/03 05:26:54;;;;;;;12.77;5.25;;;;;;;-4.90;51.43;98415.22;4992796;28;20046;-76
2023/03/03 05:29:20;;;;;;;17.30;5.20;;;;;;;-4.96;51.71;98414.59;5005054;28;20046;-78
2023/03/03 05:31:45;;;;;;;9.73;5.30;;;;;;;-5.24;50.87;98415.44;4954030;28;20664;-76
2023/03/03 05:34:11;;;;;;;10.25;5.75;;;;;;;-5.00;52.27;98410.34;4959956;28;20042;-77
2023/03/03 05:36:37;;;;;;;10.95;5.03;;;;;;;-5.01;51.71;98411.25;4985575;28;20072;-77
2023/03/03 05:39:03;;;;;;;9.18;5.28;;;;;;;-4.99;51.06;98419.91;4994344;28;20058;-77
2023/03/03 05:41:29;;;;;;;12.50;5.10;;;;;;;-4.87;51.72;98411.66;4994346;28;20051;-75
2023/03/03 05:43:55;;;;;;;9.40;5.63;;;;;;;-4.75;51.33;98418.22;4996011;28;20038;-76
2023/03/03 05:46:21;;;;;;;9.70;5.25;;;;;;;-4.77;50.47;98401.81;4987590;28;20046;-77
2023/03/03 05:48:46;;;;;;;9.65;4.70;;;;;;;-4.40;57.00;98409.19;4975402;28;20418;-78
2023/03/03 05:51:12;;;;;;;15.35;5.93;;;;;;;-4.25;51.27;98413.91;4975256;28;20039;-77
2023/03/03 05:53:38;;;;;;;12.52;5.70;;;;;;;-4.25;50.45;98411.31;4943060;28;20569;-78
2023/03/03 05:56:05;;;;;;;10.13;5.43;;;;;;;-4.44;50.35;98415.44;4975446;28;20077;-77
2023/03/03 05:58:31;;;;;;;8.40;5.25;;;;;;;-4.57;50.58;98414.16;4959278;28;20042;-78
2023/03/03 06:00:56;;;;;;;9.13;5.57;;;;;;;-4.74;51.24;98423.41;4943397;28;20047;-78
2023/03/03 06:03:22;;;;;;;10.07;5.88;;;;;;;-4.76;51.61;98422.59;4975114;28;20039;-77
2023/03/03 06:05:48;;;;;;;8.25;5.47;;;;;;;-4.88;51.34;98423.00;4960408;28;20047;-77
2023/03/03 06:08:14;;;;;;;10.40;5.63;;;;;;;-4.86;52.10;98420.34;5008069;28;20137;-76
2023/03/03 06:10:40;;;;;;;11.82;6.28;;;;;;;-4.71;51.98;98431.09;4994202;28;20046;-77
2023/03/03 06:13:08;;;;;;;13.95;6.05;;;;;;;-4.68;51.87;98435.38;4994507;28;20053;-77
2023/03/03 06:15:33;;;;;;;10.02;5.82;;;;;;;-4.89;51.80;98436.91;4978280;28;20409;-76
2023/03/03 06:17:59;;;;;;;9.52;5.72;;;;;;;-4.94;52.16;98433.63;4964044;28;20052;-78
2023/03/03 06:20:25;;;;;;;8.43;5.95;;;;;;;-4.80;52.19;98439.25;4940180;28;20066;-80
2023/03/03 06:22:51;;;;;;;10.48;5.93;;;;;;;-4.69;52.81;98434.53;4942150;28;20113;-76
2023/03/03 06:25:17;;;;;;;7.38;5.20;;;;;;;-4.38;52.59;98441.31;4974557;28;20117;-77
2023/03/03 06:27:43;;;;;;;9.90;5.53;;;;;;;-4.07;52.29;98432.41;4958588;28;20055;-77
2023/03/03 06:30:10;;;;;;;9.75;5.38;;;;;;;-3.79;51.74;98433.13;4974424;28;20525;-77
2023/03/03 06:32:35;;;;;;;10.68;5.93;;;;;;;-3.16;51.80;98438.56;4974394;28;20041;-76
2023/03/03 06:35:04;;;;;;;9.20;5.70;;;;;;;-2.89;50.81;98436.66;4975348;28;20038;-77
2023/03/03 06:37:30;;;;;;;9.93;4.90;;;;;;;-2.90;50.57;98432.31;4973974;28;20085;-77
2023/03/03 06:39:56;;;;;;;9.25;5.43;;;;;;;-2.73;49.60;98442.97;4974610;28;20054;-76
2023/03/03 06:42:23;;;;;;;11.00;5.75;;;;;;;-2.53;49.54;98449.97;4942688;28;20100;-76
2023/03/03 06:44:50;;;;;;;9.43;5.72;;;;;;;-2.63;48.62;98448.69;4974740;28;20047;-77
2023/03/03 06:47:16;;;;;;;13.15;6.07;;;;;;;-2.47;48.39;98444.50;4976176;28;20054;-76
2023/03/03 06:49:42;;;;;;;9.05;5.45;;;;;;;-2.25;48.75;98444.44;4958801;28;20055;-75
2023/03/03 06:52:13;;;;;;;11.18;5.57;;;;;;;-2.47;48.70;98452.34;4974500;28;20138;-75
2023/03/03 06:54:40;;;;;;;12.75;6.00;;;;;;;-2.30;49.01;98453.41;4958187;28;20039;-77
2023/03/03 06:57:21;;;;;;;9.93;5.75;;;;;;;-2.21;48.68;98456.50;4974384;28;20046;-75
2023/03/03 06:59:50;;;;;;;23.20;6.18;;;;;;;-2.36;48.63;98449.28;4958450;28;20051;-76
2023/03/03 07:02:18;;;;;;;20.80;5.82;;;;;;;-2.71;49.68;98459.44;4958196;28;20046;-77
2023/03/03 07:04:45;;;;;;;6.75;4.97;;;;;;;-2.51;49.77;98452.53;4958081;28;20054;-76
2023/03/03 07:07:23;;;;;;;16.55;6.18;;;;;;;-2.44;50.15;98464.47;4975572;28;20093;-77
2023/03/03 07:09:55;;;;;;;10.25;5.55;;;;;;;-2.05;49.65;98455.84;4958054;28;20524;-77
2023/03/03 07:12:29;;;;;;;11.95;5.75;;;;;;;-1.74;49.38;98461.41;4974100;28;20042;-77
2023/03/03 07:15:14;;;;;;;10.20;5.70;;;;;;;-1.36;48.71;98469.31;4975602;28;20093;-78
2023/03/03 07:17:44;;;;;;;8.68;5.28;;;;;;;-1.30;48.35;98466.44;4974007;28;20078;-77
2023/03/03 07:20:22;;;;;;;10.20;5.80;;;;;;;-1.24;47.80;98471.41;4958018;28;20043;-76
2023/03/03 07:22:49;;;;;;;8.80;5.38;;;;;;;-0.83;48.20;98471.25;4958631;28;20145;-76
2023/03/03 07:25:23;;;;;;;8.80;5.78;;;;;;;-0.68;47.36;98474.03;4973771;28;20102;-75
2023/03/03 07:27:50;;;;;;;11.98;5.53;;;;;;;-0.41;46.85;98477.94;4973994;28;20047;-75
2023/03/03 07:30:27;;;;;;;8.38;5.35;;;;;;;-0.16;46.13;98466.19;4973871;28;20043;-78
2023/03/03 07:32:56;;;;;;;9.48;5.70;;;;;;;-0.20;45.77;98464.66;4973949;28;20556;-76
2023/03/03 07:35:41;;;;;;;17.93;5.97;;;;;;;0.15;47.53;98470.72;4958258;28;20039;-79
2023/03/03 07:38:29;;;;;;;10.00;5.45;;;;;;;0.21;45.90;98468.66;4957545;28;20058;-75
2023/03/03 07:40:58;;;;;;;8.43;5.60;;;;;;;0.32;45.88;98472.50;4974298;28;20061;-81
2023/03/03 07:43:29;;;;;;;9.70;6.23;;;;;;;0.31;45.39;98471.66;4974984;28;20047;-78
2023/03/03 07:46:26;;;;;;;8.18;5.20;;;;;;;0.22;45.29;98462.44;4974748;28;20501;-76
2023/03/03 07:48:54;;;;;;;8.85;5.30;;;;;;;0.05;45.84;98469.53;4957449;28;20047;-77
2023/03/03 07:51:27;;;;;;;11.75;5.35;;;;;;;-0.08;46.52;98461.41;4972981;28;20073;-79
2023/03/03 07:54:13;;;;;;;8.98;4.95;;;;;;;-0.47;46.73;98462.50;4973514;28;20072;-81
2023/03/03 07:56:39;;;;;;;9.15;6.10;;;;;;;-0.57;47.46;98466.47;4974504;28;20039;-77
2023/03/03 07:59:29;;;;;;;12.20;5.93;;;;;;;-0.32;47.56;98466.97;4941210;28;20408;-75
2023/03/03 08:01:57;;;;;;;12.10;5.57;;;;;;;-0.42;47.45;98457.00;4973840;28;20082;-76
2023/03/03 08:04:43;;;;;;;8.53;5.23;;;;;;;-0.74;48.67;98455.03;4951516;28;20454;-77
2023/03/03 08:07:16;;;;;;;17.60;7.20;;;;;;;-0.48;48.61;98458.16;4968749;28;20043;-77
2023/03/03 08:09:58;;;;;;;10.30;6.65;;;;;;;-0.01;48.31;98454.91;4968459;28;20053;-77
2023/03/03 08:12:41;;;;;;;10.82;6.63;;;;;;;0.04;47.80;98452.91;4933490;28;20053;-76
2023/03/03 08:15:23;;;;;;;10.45;6.40;;;;;;;-0.03;47.99;98454.16;4978850;28;20113;-76
2023/03/03 08:17:52;;;;;;;10.77;6.65;;;;;;;-0.04;47.98;98449.81;4970907;28;20050;-76
2023/03/03 08:20:44;;;;;;;10.70;6.90;;;;;;;0.47;47.15;98448.03;4963228;28;20071;-76
2023/03/03 08:23:11;;;;;;;10.25;6.28;;;;;;;0.56;46.68;98441.41;4973444;28;20508;-77
2023/03/03 08:25:37;;;;;;;10.38;6.68;;;;;;;0.61;46.88;98431.53;4973296;28;20054;-76
2023/03/03 08:28:04;;;;;;;18.38;5.90;;;;;;;0.44;46.95;98435.03;4989741;28;20066;-76
2023/03/03 08:30:30;;;;;;;12.35;6.43;;;;;;;0.45;47.44;98447.25;4973583;28;20524;-77
2023/03/03 08:32:57;;;;;;;10.98;6.80;;;;;;;0.35;47.74;98446.91;4973362;28;20347;-77
2023/03/03 08:35:25;;;;;;;13.15;7.07;;;;;;;0.14;48.40;98443.59;4989581;28;20050;-77
2023/03/03 08:37:51;;;;;;;9.23;5.88;;;;;;;-0.12;49.33;98444.09;4972810;28;20057;-75
2023/03/03 08:40:17;;;;;;;12.23;6.20;;;;;;;-0.18;49.51;98436.56;4989619;28;20054;-77
2023/03/03 08:42:42;;;;;;;12.27;5.88;;;;;;;-0.34;49.69;98446.97;4973254;28;20057;-77
2023/03/03 08:45:08;;;;;;;8.55;5.97;;;;;;;-0.01;49.66;98434.75;4957237;28;20042;-76
2023/03/03 08:47:34;;;;;;;7.90;5.85;;;;;;;0.26;49.15;98433.38;4941058;28;20038;-77
2023/03/03 08:50:00;;;;;;;8.77;6.03;;;;;;;-0.03;49.22;98441.03;4973369;28;20054;-76
2023/03/03 08:52:26;;;;;;;10.50;6.50;;;;;;;-0.07;50.12;98428.97;4975698;28;20534;-78
2023/03/03 08:54:51;;;;;;;9.88;5.97;;;;;;;0.24;49.38;98434.31;4966896;28;20056;-81
2023/03/03 08:57:17;;;;;;;8.27;5.25;;;;;;;0.36;49.15;98426.72;4993785;28;20058;-77
2023/03/03 08:59:44;;;;;;;7.63;4.97;;;;;;;0.33;49.21;98417.22;4992144;28;20489;-76
2023/03/03 09:02:09;;;;;;;7.63;5.75;;;;;;;0.54;49.64;98423.09;4996104;28;20177;-76
2023/03/03 09:04:35;;;;;;;9.70;5.97;;;;;;;1.03;49.01;98423.03;5012231;28;20509;-76
2023/03/03 09:07:01;;;;;;;8.82;5.47;;;;;;;1.32;48.09;98423.19;4970489;28;20102;-77
2023/03/03 09:09:27;;;;;;;8.10;5.78;;;;;;;1.98;47.52;98425.44;4957295;28;20505;-77
2023/03/03 09:11:58;;;;;;;8.75;5.18;;;;;;;2.16;46.70;98420.84;4972638;28;20059;-77
2023/03/03 09:14:28;;;;;;;7.90;5.45;;;;;;;1.91;46.89;98417.03;4948554;28;20043;-78
2023/03/03 09:16:54;;;;;;;;;;;;;;;1.83;47.14;98418.44;4951782;28;20046;-77
2023/03/03 09:19:31;;;;;;;6.88;5.43;;;;;;;1.70;46.92;98415.69;4972139;28;19945;-77
2023/03/03 09:22:10;;;;;;;6.60;4.78;;;;;;;1.70;47.10;98421.81;4958742;28;20062;-76
2023/03/03 09:24:36;;;;;;;5.13;3.80;;;;;;;1.12;47.66;98411.97;4960096;28;20046;-77
2023/03/03 09:27:18;;;;;;;8.23;4.15;;;;;;;1.00;48.53;98404.78;4975875;28;20421;-77
2023/03/03 09:29:44;;;;;;;7.35;4.20;;;;;;;1.00;49.19;98402.16;4977385;28;20054;-77
2023/03/03 09:32:25;;;;;;;7.72;4.00;;;;;;;1.37;48.91;98410.59;4977063;28;20054;-76
2023/03/03 09:34:51;;;;;;;7.07;3.45;;;;;;;1.67;48.06;98408.81;4959592;28;20049;-77
2023/03/03 09:37:23;;;;;;;5.75;3.75;;;;;;;1.25;48.81;98406.03;4956971;28;20039;-77
2023/03/03 09:39:51;;;;;;;4.63;3.20;;;;;;;0.88;49.50;98411.59;4966759;28;20051;-77
2023/03/03 09:42:45;;;;;;;3.95;3.53;;;;;;;1.00;49.23;98412.69;4971346;28;20110;-77
2023/03/03 09:45:17;;;;;;;3.80;3.47;;;;;;;1.28;49.08;98421.63;4950649;28;20077;-77
2023/03/03 09:47:55;;;;;;;3.63;3.15;;;;;;;1.01;49.24;98414.38;4965566;28;20059;-77
2023/03/03 09:50:21;;;;;;;7.00;4.05;;;;;;;1.23;48.76;98429.81;4949112;28;20047;-78
2023/03/03 09:52:56;;;;;;;4.90;3.70;;;;;;;1.31;48.75;98432.00;4964558;28;20039;-77
2023/03/03 09:55:40;;;;;;;4.82;3.40;;;;;;;1.38;48.81;98434.19;4955601;28;20054;-76
2023/03/03 09:58:18;;;;;;;4.00;3.33;;;;;;;1.35;49.43;98423.00;4965951;28;20067;-76
2023/03/03 10:01:23;;;;;;;9.50;4.45;;;;;;;1.47;48.68;98419.66;4958930;28;20129;-77
2023/03/03 10:04:13;;;;;;;7.70;3.83;;;;;;;1.09;49.88;98438.50;4975230;28;20133;-76
2023/03/03 10:06:56;;;;;;;5.28;3.28;;;;;;;1.02;50.66;98429.25;4976507;28;20042;-78
2023/03/03 10:10:13;;;;;;;4.55;3.05;;;;;;;0.89;50.55;98438.75;4974845;28;20060;-77
2023/03/03 10:13:20;;;;;;;6.45;2.97;;;;;;;0.28;52.06;98434.16;4966316;28;20058;-77
2023/03/03 10:16:04;;;;;;;3.70;2.70;;;;;;;0.14;52.66;98440.97;4958679;28;20449;-78
2023/03/03 10:18:55;;;;;;;6.80;3.55;;;;;;;-0.01;53.32;98439.16;4976358;28;20085;-77
2023/03/03 10:21:43;;;;;;;5.97;3.40;;;;;;;0.06;53.44;98419.50;4975262;28;20047;-76
2023/03/03 10:24:29;;;;;;;6.47;3.58;;;;;;;0.09;53.38;98427.25;4959090;28;20169;-76
2023/03/03 10:27:17;;;;;;;4.55;3.28;;;;;;;0.05;53.42;98425.72;4975319;28;20050;-77
2023/03/03 10:30:33;;;;;;;5.03;3.38;;;;;;;0.02;53.30;98436.38;4975081;28;20096;-79
2023/03/03 10:33:22;;;;;;;7.82;3.78;;;;;;;-0.31;54.22;98426.66;4954853;28;20772;-78
2023/03/03 10:35:58;;;;;;;;;;;;;;;-0.43;54.24;98421.19;4947715;28;20387;-77
2023/03/03 10:38:32;;;;;;;5.90;3.22;;;;;;;-0.53;54.71;98420.78;4933294;29;20300;-79
2023/03/03 10:41:33;;;;;;;5.07;3.38;;;;;;;-0.49;54.70;98417.06;4939311;29;20047;-77
2023/03/03 10:44:24;;;;;;;6.57;3.70;;;;;;;-0.66;55.36;98425.78;4934583;28;20506;-78
2023/03/03 10:47:04;;;;;;;4.63;3.95;;;;;;;-0.63;54.82;98423.03;4968523;28;20101;-78
2023/03/03 10:49:49;;;;;;;5.93;3.88;;;;;;;-0.17;54.69;98423.34;5010104;28;20105;-76
2023/03/03 10:52:37;;;;;;;5.05;3.28;;;;;;;-0.20;53.99;98417.38;4978419;28;20054;-78
2023/03/03 10:55:03;;;;;;;7.18;3.90;;;;;;;-0.28;54.41;98421.25;4994108;28;20062;-77
2023/03/03 10:57:51;;;;;;;6.13;4.03;;;;;;;-0.64;55.21;98423.09;4994930;28;20450;-78
2023/03/03 11:00:28;;;;;;;6.65;3.90;;;;;;;-0.74;55.28;98414.84;4994694;28;20398;-78
2023/03/03 11:03:28;;;;;;;7.72;4.05;;;;;;;-0.75;55.64;98413.97;4994122;28;20058;-77
2023/03/03 11:05:58;;;;;;;7.20;3.67;;;;;;;-0.92;55.28;98403.44;4994623;28;20116;-77
2023/03/03 11:08:37;;;;;;;5.30;3.10;;;;;;;-1.23;56.21;98417.19;5010158;28;20145;-77
2023/03/03 11:11:11;;;;;;;7.30;4.10;;;;;;;-1.37;56.87;98406.50;4995699;28;20088;-77
2023/03/03 11:14:11;;;;;;;5.95;4.32;;;;;;;-1.48;57.09;98404.38;4977500;28;20541;-78
2023/03/03 11:17:02;;;;;;;7.95;4.65;;;;;;;-1.53;57.58;98411.59;4994030;28;20088;-79
2023/03/03 11:19:53;;;;;;;6.57;4.40;;;;;;;-1.28;57.25;98417.41;4984243;28;20057;-78
2023/03/03 11:22:32;;;;;;;7.40;4.68;;;;;;;-1.23;57.33;98401.47;4996276;28;20048;-77
2023/03/03 11:25:04;;;;;;;;;;;;;;;-1.31;57.89;98404.44;4995194;28;20046;-76
2023/03/03 11:27:29;;;;;;;11.95;4.43;;;;;;;-1.40;57.92;98407.47;4994815;28;20364;-76
2023/03/03 11:30:02;;;;;;;12.55;4.97;;;;;;;-1.49;58.70;98395.66;4995006;28;20081;-79
2023/03/03 11:32:52;;;;;;;6.65;4.68;;;;;;;-1.45;59.07;98398.13;4977997;28;20042;-75
2023/03/03 11:35:33;;;;;;;8.20;4.38;;;;;;;-1.50;59.57;98416.72;5011716;28;20112;-77
2023/03/03 11:38:11;;;;;;;7.28;4.78;;;;;;;-1.53;59.81;98406.34;4977189;28;20042;-78
2023/03/03 11:40:45;;;;;;;7.80;5.10;;;;;;;-1.62;60.11;98405.00;4976731;28;20049;-77
2023/03/03 11:43:15;;;;;;;10.32;5.05;;;;;;;-1.61;60.52;98398.00;4994634;28;20129;-78
2023/03/03 11:45:48;;;;;;;12.80;4.38;;;;;;;-1.54;60.53;98396.81;4976367;28;20054;-77
2023/03/03 11:48:21;;;;;;;7.82;4.88;;;;;;;-1.56;60.88;98396.00;4984740;28;20460;-77
2023/03/03 11:51:04;;;;;;;7.75;4.88;;;;;;;-1.53;61.09;98401.13;4969782;28;20474;-76
2023/03/03 11:53:53;;;;;;;9.10;5.07;;;;;;;-1.48;61.23;98396.50;4948547;28;20098;-76
2023/03/03 11:56:41;;;;;;;10.02;4.80;;;;;;;-1.46;61.37;98389.44;4944096;28;20039;-77